Observations for SOUTHEND-ON-SEA, United Kingdom (EGMC)

EGMC 230950Z 27011KT CAVOK 11/06 Q1029  
EGMC 230920Z 26011KT CAVOK 10/05 Q1029  
EGMC 230850Z 27007KT CAVOK 09/05 Q1029  
EGMC 230820Z 25008KT CAVOK 09/05 Q1029  
EGMC 230750Z 25007KT 210V280 CAVOK 08/04 Q1029  
EGMC 230720Z 25008KT CAVOK 08/04 Q1030  
EGMC 230650Z 25007KT CAVOK 07/04 Q1030  
EGMC 230620Z 25008KT CAVOK 08/04 Q1030  
EGMC 230550Z 25011KT CAVOK 08/04 Q1030  
EGMC 230520Z 24008KT CAVOK 07/04 Q1031  
EGMC 230450Z 23006KT CAVOK 07/04 Q1031  
EGMC 230420Z 24006KT CAVOK 06/04 Q1031  
EGMC 230350Z 23007KT CAVOK 06/03 Q1031  
EGMC 230250Z 23006KT CAVOK 06/03 Q1032  
EGMC 230150Z 25008KT CAVOK 07/03 Q1033  
EGMC 230120Z 25008KT CAVOK 07/03 Q1033  
EGMC 230050Z 25004KT CAVOK 07/04 Q1034  
EGMC 230020Z 24007KT CAVOK 06/03 Q1034  
EGMC 222350Z 25006KT CAVOK 06/03 Q1035  
EGMC 222320Z 27005KT CAVOK 05/03 Q1035  
EGMC 222250Z 26003KT CAVOK 04/01 Q1035  
EGMC 222220Z 00000KT CAVOK 05/02 Q1036  
EGMC 222150Z 25003KT CAVOK 05/02 Q1036  
EGMC 222120Z 24003KT CAVOK 04/02 Q1036  
EGMC 222050Z 25003KT CAVOK 04/02 Q1036  
EGMC 222020Z 27004KT CAVOK 05/02 Q1036  
EGMC 221950Z 26004KT CAVOK 05/03 Q1036  
EGMC 221920Z 27004KT CAVOK 06/03 Q1036  
EGMC 221850Z 29003KT CAVOK 07/03 Q1037  
EGMC 221820Z 30004KT CAVOK 06/02 Q1037  
EGMC 221750Z 31004KT CAVOK 08/04 Q1037  
EGMC 221720Z 29003KT CAVOK 08/03 Q1036  
EGMC 221650Z 32003KT CAVOK 09/03 Q1036  
EGMC 221620Z 32004KT 290V350 CAVOK 10/03 Q1036  
EGMC 221550Z 34005KT CAVOK 11/03 Q1036  
EGMC 221520Z 34006KT 9999 FEW035 12/03 Q1036
EGMC 221450Z 34008KT 9999 FEW038 12/04 Q1036
EGMC 221420Z 35007KT 310V040 9999 FEW038 12/04 Q1036
EGMC 221350Z 01005KT 330V060 9999 FEW038 12/05 Q1036
EGMC 221320Z 35007KT 290V030 9999 FEW034 12/04 Q1036
EGMC 221250Z 01007KT 330V030 9999 FEW031 13/05 Q1037
EGMC 221220Z 03009KT 350V060 9999 FEW031 12/05 Q1037
EGMC 221150Z 36008KT 320V060 9999 FEW028 12/05 Q1037
EGMC 221120Z 34009KT 310V050 9999 FEW028 12/06 Q1037
EGMC 221050Z 01007KT 330V040 CAVOK 11/05 Q1036  
EGMC 221020Z 36009KT CAVOK 10/05 Q1036  
EGMC 220950Z 36010KT CAVOK 10/05 Q1036  
EGMC 220920Z 36010KT CAVOK 09/04 Q1036